Time;durP1;ratioP1;P1;durP2;ratioP2;P2;SDS_P1;SDS_P2;PMS_P1;PMS_P2;Temp;Humidity;BMP_temperature;BMP_pressure;BME280_temperature;BME280_humidity;BME280_pressure;Samples;Min_cycle;Max_cycle;Signal;HPM_P1;HPM_P2
2021/05/20 00:01:43;;;;;;;3.05;0.78;;;;;;;12.78;85.95;99639.50;1719376;83;20966;-41
2021/05/20 00:04:09;;;;;;;5.37;1.12;;;;;;;12.72;85.80;99639.72;1719275;83;20981;-41
2021/05/20 00:06:36;;;;;;;21.27;1.72;;;;;;;12.62;86.23;99642.70;1719445;83;21096;-41
2021/05/20 00:09:04;;;;;;;4.67;0.70;;;;;;;12.49;86.75;99638.88;1719372;83;22741;-42
2021/05/20 00:11:31;;;;;;;2.72;0.72;;;;;;;12.40;87.44;99634.92;1719423;83;20934;-42
2021/05/20 00:13:59;;;;;;;3.20;0.70;;;;;;;12.26;88.16;99638.06;1719347;83;20961;-42
2021/05/20 00:16:26;;;;;;;8.93;1.17;;;;;;;12.16;88.75;99641.89;1719381;83;20946;-42
2021/05/20 00:18:53;;;;;;;6.83;0.85;;;;;;;12.06;89.25;99644.84;1719363;83;21215;-42
2021/05/20 00:21:19;;;;;;;2.52;0.78;;;;;;;12.01;89.66;99638.98;1719403;83;21049;-42
2021/05/20 00:23:46;;;;;;;7.10;1.10;;;;;;;11.99;89.98;99642.03;1719286;83;20953;-42
2021/05/20 00:26:13;;;;;;;1.67;0.40;;;;;;;11.97;90.18;99638.65;1719371;83;21017;-42
2021/05/20 00:28:40;;;;;;;2.30;0.68;;;;;;;11.96;90.40;99639.55;1719430;82;20945;-42
2021/05/20 00:31:07;;;;;;;2.92;0.82;;;;;;;11.94;90.69;99640.06;1719480;83;21675;-42
2021/05/20 00:33:33;;;;;;;1.22;0.60;;;;;;;11.94;90.73;99634.87;1719188;82;21582;-42
2021/05/20 00:36:00;;;;;;;12.10;1.20;;;;;;;11.93;90.73;99635.78;1719398;83;20906;-42
2021/05/20 00:38:26;;;;;;;4.20;0.98;;;;;;;11.91;90.48;99634.99;1719383;83;20947;-42
2021/05/20 00:41:03;;;;;;;7.83;1.00;;;;;;;11.89;90.23;99631.62;1719517;83;21572;-43
2021/05/20 00:43:30;;;;;;;7.83;0.90;;;;;;;11.89;90.18;99631.62;1719381;83;21105;-43
2021/05/20 00:45:57;;;;;;;3.33;0.40;;;;;;;11.88;90.09;99633.81;1719448;83;20973;-42
2021/05/20 00:48:23;;;;;;;3.35;1.00;;;;;;;11.87;89.94;99633.42;1719295;83;21539;-42
2021/05/20 00:50:50;;;;;;;1.27;0.30;;;;;;;11.86;89.90;99631.73;1719399;83;20973;-42
2021/05/20 00:53:17;;;;;;;6.50;0.72;;;;;;;11.88;89.84;99633.38;1719353;83;20906;-42
2021/05/20 00:55:43;;;;;;;11.33;0.45;;;;;;;11.89;89.71;99636.36;1719243;83;21013;-43
2021/05/20 00:58:11;;;;;;;1.22;0.50;;;;;;;11.91;89.53;99636.29;1719360;83;21005;-43
2021/05/20 01:00:38;;;;;;;0.60;0.40;;;;;;;11.92;89.45;99637.98;1719296;83;20966;-42
2021/05/20 01:03:05;;;;;;;3.85;0.50;;;;;;;11.92;89.27;99631.50;1719279;83;21001;-43
2021/05/20 01:05:32;;;;;;;0.95;0.33;;;;;;;11.93;89.03;99635.34;1719190;83;20978;-43
2021/05/20 01:07:59;;;;;;;0.78;0.20;;;;;;;11.93;88.84;99630.59;1719432;83;21849;-42
2021/05/20 01:10:26;;;;;;;0.68;0.28;;;;;;;11.93;88.78;99630.59;1719332;82;20954;-42
2021/05/20 01:12:52;;;;;;;3.62;0.50;;;;;;;11.90;88.76;99631.57;1719345;83;20875;-42
2021/05/20 01:15:29;;;;;;;2.58;0.20;;;;;;;11.86;88.66;99633.86;1719379;83;21534;-42
2021/05/20 01:18:01;;;;;;;1.55;0.40;;;;;;;11.86;88.73;99630.44;1719402;83;21005;-42
2021/05/20 01:20:33;;;;;;;0.20;0.20;;;;;;;11.80;88.71;99635.39;1719349;83;21100;-42
2021/05/20 01:23:08;;;;;;;0.85;0.20;;;;;;;11.76;88.62;99637.70;1719453;83;21069;-43
2021/05/20 01:25:36;;;;;;;0.30;0.30;;;;;;;11.73;88.77;99638.64;1719442;83;20958;-42
2021/05/20 01:28:07;;;;;;;6.12;0.50;;;;;;;11.72;88.88;99637.42;1719257;82;21006;-42
2021/05/20 01:30:36;;;;;;;0.90;0.40;;;;;;;11.71;88.89;99637.86;1718336;83;21475;-42
2021/05/20 01:33:04;;;;;;;7.22;0.72;;;;;;;11.72;89.13;99642.14;1719392;83;21018;-43
2021/05/20 01:35:31;;;;;;;1.90;0.40;;;;;;;11.74;89.24;99646.81;1719268;83;20926;-42
2021/05/20 01:41:02;;;;;;;5.75;0.53;;;;;;;11.74;89.47;99646.81;1719278;83;21018;-42
2021/05/20 01:43:29;;;;;;;2.77;0.70;;;;;;;11.71;89.91;99646.93;1719242;83;20986;-43
2021/05/20 01:45:59;;;;;;;1.37;0.40;;;;;;;11.66;90.24;99646.26;1719292;83;21105;-43
2021/05/20 01:48:29;;;;;;;3.70;0.57;;;;;;;11.66;90.70;99649.31;1719166;83;20894;-43
2021/05/20 01:51:14;;;;;;;1.02;0.62;;;;;;;11.60;91.14;99659.45;1718456;83;21535;-42
2021/05/20 01:53:44;;;;;;;3.50;0.53;;;;;;;11.52;91.48;99642.86;1719360;83;20981;-41
2021/05/20 01:56:11;;;;;;;0.82;0.40;;;;;;;11.46;91.91;99655.58;1719393;83;20987;-41
2021/05/20 01:58:37;;;;;;;7.05;1.37;;;;;;;11.43;92.18;99655.69;1719370;83;21038;-41
2021/05/20 02:01:05;;;;;;;1.20;0.65;;;;;;;11.40;92.59;99651.91;1719163;83;21053;-41
2021/05/20 02:03:32;;;;;;;1.35;0.88;;;;;;;11.41;93.01;99658.78;1719291;83;20966;-42
2021/05/20 02:06:01;;;;;;;5.22;0.55;;;;;;;11.41;93.22;99661.84;1712714;83;20966;-41
2021/05/20 02:08:29;;;;;;;1.85;0.78;;;;;;;11.40;93.42;99659.69;1705867;84;20969;-43
2021/05/20 02:10:56;;;;;;;0.88;0.47;;;;;;;11.39;93.84;99656.70;1705679;84;21081;-41
2021/05/20 02:13:22;;;;;;;0.72;0.40;;;;;;;11.41;94.03;99666.56;1705822;83;21034;-41
2021/05/20 02:15:49;;;;;;;6.37;1.57;;;;;;;11.39;94.30;99661.88;1705786;84;20982;-42
2021/05/20 02:18:15;;;;;;;6.62;0.90;;;;;;;11.40;94.52;99667.45;1705908;84;20975;-42
2021/05/20 02:20:42;;;;;;;3.25;0.53;;;;;;;11.41;94.76;99661.38;1705964;84;21488;-42
2021/05/20 02:23:08;;;;;;;3.12;0.90;;;;;;;11.43;94.82;99667.81;1705834;84;21810;-43
2021/05/20 02:25:35;;;;;;;0.50;0.40;;;;;;;11.40;94.92;99660.16;1705936;84;21520;-43
2021/05/20 02:28:01;;;;;;;2.67;0.70;;;;;;;11.37;94.94;99668.86;1705912;82;21496;-42
2021/05/20 02:30:28;;;;;;;5.47;0.90;;;;;;;11.34;95.12;99669.80;1705829;83;21631;-43
2021/05/20 02:32:54;;;;;;;2.40;1.10;;;;;;;11.34;95.27;99667.21;1705905;84;20951;-42
2021/05/20 02:35:21;;;;;;;3.22;0.50;;;;;;;11.34;95.38;99670.27;1705871;84;21011;-43
2021/05/20 02:37:48;;;;;;;3.10;0.70;;;;;;;11.35;95.52;99668.07;1705774;84;21041;-43
2021/05/20 02:40:15;;;;;;;11.05;1.42;;;;;;;11.31;95.59;99672.50;1705803;84;20872;-42
2021/05/20 02:42:42;;;;;;;2.15;0.82;;;;;;;11.34;95.81;99668.97;1705910;84;21013;-43
2021/05/20 02:45:14;;;;;;;23.52;1.37;;;;;;;11.34;95.99;99668.50;1705869;84;20942;-42
2021/05/20 02:47:44;;;;;;;5.00;1.50;;;;;;;11.33;96.08;99668.11;1705889;83;21072;-43
2021/05/20 02:50:13;;;;;;;3.72;0.70;;;;;;;11.35;96.19;99665.48;1705778;83;20978;-43
2021/05/20 02:52:43;;;;;;;2.62;0.80;;;;;;;11.38;96.21;99666.66;1705837;84;20990;-43
2021/05/20 02:55:09;;;;;;;3.33;1.32;;;;;;;11.38;96.24;99669.26;1705625;84;21010;-42
2021/05/20 02:57:37;;;;;;;1.98;0.72;;;;;;;11.39;96.37;99669.66;1705924;84;21001;-42
2021/05/20 03:00:06;;;;;;;4.50;0.90;;;;;;;11.41;96.35;99674.80;1705915;84;21090;-43
2021/05/20 03:02:33;;;;;;;12.20;1.00;;;;;;;11.44;96.37;99680.70;1705826;84;20895;-43
2021/05/20 03:04:59;;;;;;;27.07;1.10;;;;;;;11.47;96.00;99678.47;1705919;84;20931;-42
2021/05/20 03:07:26;;;;;;;4.83;0.70;;;;;;;11.50;95.88;99680.52;1705925;83;21018;-43
2021/05/20 03:09:52;;;;;;;4.95;0.85;;;;;;;11.54;95.82;99689.47;1705954;84;21022;-42
2021/05/20 03:12:20;;;;;;;6.60;1.30;;;;;;;11.56;95.52;99686.38;1705890;82;21839;-43
2021/05/20 03:14:47;;;;;;;5.78;1.05;;;;;;;11.58;95.18;99687.17;1705842;84;21511;-43
2021/05/20 03:17:13;;;;;;;1.52;0.60;;;;;;;11.61;94.81;99693.53;1705944;84;21571;-43
2021/05/20 03:19:39;;;;;;;2.52;0.93;;;;;;;11.60;94.08;99693.14;1705785;84;21579;-43
2021/05/20 03:22:07;;;;;;;3.80;0.80;;;;;;;11.59;93.60;99692.75;1705962;83;21456;-42
2021/05/20 03:24:35;;;;;;;2.83;0.75;;;;;;;11.61;93.30;99699.55;1705868;84;21154;-43
2021/05/20 03:27:02;;;;;;;12.78;1.27;;;;;;;11.63;92.88;99699.08;1705858;82;20887;-43
2021/05/20 03:29:28;;;;;;;6.33;0.70;;;;;;;11.66;92.77;99694.22;1672004;85;21006;-42
2021/05/20 03:31:55;;;;;;;6.15;0.68;;;;;;;11.69;92.37;99690.22;1667231;86;21054;-42
2021/05/20 03:34:21;;;;;;;1.27;0.25;;;;;;;11.71;92.32;99706.56;1667262;86;21022;-43
2021/05/20 03:36:48;;;;;;;18.00;1.40;;;;;;;11.74;91.68;99701.73;1667263;86;21087;-42
2021/05/20 03:39:15;;;;;;;8.25;1.20;;;;;;;11.75;91.40;99706.88;1667278;86;21002;-42
2021/05/20 03:41:42;;;;;;;2.98;1.00;;;;;;;11.75;90.49;99704.28;1667203;86;21543;-42
2021/05/20 03:44:09;;;;;;;3.45;0.60;;;;;;;11.77;90.14;99698.59;1667149;86;21009;-43
2021/05/20 03:46:37;;;;;;;5.28;0.70;;;;;;;11.81;90.03;99700.60;1667197;86;21046;-42
2021/05/20 03:49:03;;;;;;;9.43;0.98;;;;;;;11.83;89.23;99697.50;1667260;86;21089;-42
2021/05/20 03:51:30;;;;;;;2.20;0.68;;;;;;;11.86;88.83;99701.75;1667219;86;21014;-42
2021/05/20 03:53:57;;;;;;;9.03;1.27;;;;;;;11.89;88.39;99701.63;1667336;86;20938;-42
2021/05/20 03:56:24;;;;;;;4.03;0.85;;;;;;;11.90;87.97;99702.89;1667262;86;20986;-42
2021/05/20 03:58:51;;;;;;;4.80;0.75;;;;;;;11.95;87.50;99705.77;1638703;86;20942;-42
2021/05/20 04:01:18;;;;;;;10.80;1.12;;;;;;;11.97;87.13;99703.95;1667233;86;21036;-42
2021/05/20 04:03:44;;;;;;;1.02;0.80;;;;;;;12.03;87.59;99703.76;1667210;86;21010;-43
2021/05/20 04:06:11;;;;;;;2.92;0.70;;;;;;;12.08;87.45;99712.21;1668742;84;20963;-42
2021/05/20 04:08:37;;;;;;;2.92;0.80;;;;;;;12.10;87.24;99716.89;1681962;85;20965;-42
2021/05/20 04:11:03;;;;;;;2.65;0.85;;;;;;;12.15;87.23;99722.78;1672652;85;21002;-42
2021/05/20 04:13:34;;;;;;;1.67;1.00;;;;;;;12.20;86.92;99728.64;1682031;85;21668;-42
2021/05/20 04:16:01;;;;;;;2.25;0.60;;;;;;;12.19;86.56;99733.44;1672591;85;20962;-42
2021/05/20 04:18:29;;;;;;;2.87;0.62;;;;;;;12.23;86.56;99735.45;1681803;84;20997;-42
2021/05/20 04:20:57;;;;;;;1.82;0.80;;;;;;;12.28;86.29;99730.95;1672579;85;20914;-42
2021/05/20 04:23:24;;;;;;;1.57;0.42;;;;;;;12.34;86.02;99737.21;1681883;85;21009;-42
2021/05/20 04:25:51;;;;;;;0.60;0.60;;;;;;;12.41;86.03;99736.53;1654328;86;21089;-42
2021/05/20 04:28:17;;;;;;;4.80;1.12;;;;;;;12.47;85.69;99740.63;1672539;84;21598;-42
2021/05/20 04:30:44;;;;;;;2.52;0.70;;;;;;;12.53;85.59;99740.42;1681913;85;20958;-43
2021/05/20 04:33:10;;;;;;;1.22;0.60;;;;;;;12.51;84.83;99748.72;1672405;85;21013;-43
2021/05/20 04:35:37;;;;;;;2.58;0.53;;;;;;;12.45;84.13;99748.92;1681901;85;20985;-43
2021/05/20 04:38:04;;;;;;;0.30;0.30;;;;;;;12.43;84.18;99750.73;1672524;85;21695;-43
2021/05/20 04:40:32;;;;;;;1.10;0.50;;;;;;;12.37;84.10;99753.09;1681728;84;21036;-42
2021/05/20 04:42:59;;;;;;;0.37;0.37;;;;;;;12.34;84.03;99752.78;1672527;85;21670;-43
2021/05/20 04:45:26;;;;;;;0.30;0.30;;;;;;;12.30;83.89;99753.80;1681950;85;21467;-43
2021/05/20 04:47:52;;;;;;;0.93;0.30;;;;;;;12.27;83.96;99756.52;1672478;85;21007;-43
2021/05/20 04:50:19;;;;;;;0.50;0.33;;;;;;;12.25;84.07;99765.24;1681824;84;21146;-42
2021/05/20 04:52:46;;;;;;;2.12;0.40;;;;;;;12.20;83.91;99764.97;1672613;85;20899;-43
2021/05/20 04:55:14;;;;;;;3.22;0.37;;;;;;;12.18;83.96;99770.66;1681764;85;20977;-43
2021/05/20 04:57:40;;;;;;;2.40;0.40;;;;;;;12.15;83.64;99768.18;1672472;85;21073;-43
2021/05/20 05:00:09;;;;;;;0.30;0.30;;;;;;;12.12;83.39;99777.34;1681805;84;20954;-42
2021/05/20 05:02:35;;;;;;;1.75;0.50;;;;;;;12.12;83.38;99780.41;1672550;85;21606;-41
2021/05/20 05:05:04;;;;;;;2.22;0.42;;;;;;;12.14;83.29;99783.78;1681819;84;20882;-43
2021/05/20 05:07:30;;;;;;;5.60;0.40;;;;;;;12.15;83.21;99780.30;1672439;84;21018;-43
2021/05/20 05:09:57;;;;;;;0.40;0.30;;;;;;;12.12;82.62;99785.59;1681783;85;20997;-42
2021/05/20 05:12:24;;;;;;;9.05;0.50;;;;;;;12.12;82.69;99786.42;1654348;86;21001;-40
2021/05/20 05:14:50;;;;;;;3.62;0.30;;;;;;;12.11;82.17;99789.92;1672653;85;21080;-42
2021/05/20 05:17:17;;;;;;;0.35;0.30;;;;;;;12.15;82.20;99788.08;1681704;85;20886;-42
2021/05/20 05:19:44;;;;;;;0.57;0.42;;;;;;;12.18;81.88;99782.34;1672659;85;20926;-42
2021/05/20 05:22:10;;;;;;;2.27;0.23;;;;;;;12.21;80.86;99774.88;1681830;85;21681;-42
2021/05/20 05:24:37;;;;;;;2.05;0.30;;;;;;;12.27;81.05;99769.92;1672424;85;21001;-42
2021/05/20 05:27:04;;;;;;;0.47;0.47;;;;;;;12.33;80.34;99760.17;1681679;85;21014;-40
2021/05/20 05:29:32;;;;;;;6.37;0.45;;;;;;;12.42;80.30;99763.32;1672565;85;20958;-40
2021/05/20 05:32:00;;;;;;;0.62;0.33;;;;;;;12.51;79.76;99774.68;1681727;84;20984;-41
2021/05/20 05:34:26;;;;;;;3.67;0.40;;;;;;;12.59;79.70;99776.53;1672556;85;21063;-41
2021/05/20 05:36:53;;;;;;;0.37;0.37;;;;;;;12.68;79.25;99768.84;1681780;85;20897;-41
2021/05/20 05:39:20;;;;;;;2.58;0.40;;;;;;;12.80;79.50;99774.02;1672530;85;21090;-41
2021/05/20 05:41:46;;;;;;;1.95;0.47;;;;;;;12.97;79.48;99772.50;1681713;85;20922;-41
2021/05/20 05:44:13;;;;;;;0.72;0.50;;;;;;;13.06;77.37;99781.25;1672439;85;22326;-41
2021/05/20 05:46:42;;;;;;;1.15;0.50;;;;;;;13.11;77.88;99784.95;1681529;85;20985;-41
2021/05/20 05:49:13;;;;;;;4.15;0.50;;;;;;;13.19;77.07;99786.34;1672549;85;21069;-41
2021/05/20 05:51:41;;;;;;;0.50;0.50;;;;;;;13.27;77.46;99789.93;1681471;84;21119;-42
2021/05/20 05:54:08;;;;;;;3.00;0.42;;;;;;;13.38;76.86;99797.30;1672423;85;21380;-41
2021/05/20 05:56:35;;;;;;;3.05;0.47;;;;;;;13.50;75.47;99802.02;1681721;85;21056;-42
2021/05/20 05:59:02;;;;;;;0.40;0.40;;;;;;;13.58;74.87;99799.58;1672522;85;21025;-41
2021/05/20 06:01:29;;;;;;;3.40;0.40;;;;;;;13.64;73.97;99796.71;1681789;85;20973;-41
2021/05/20 06:03:57;;;;;;;0.80;0.42;;;;;;;13.66;73.66;99789.69;1672394;85;21045;-42
2021/05/20 06:06:23;;;;;;;1.67;0.70;;;;;;;13.82;73.35;99773.45;1680828;85;21029;-41
2021/05/20 06:08:50;;;;;;;0.60;0.30;;;;;;;13.96;72.61;99793.19;1667250;86;21030;-41
2021/05/20 06:11:16;;;;;;;1.07;0.60;;;;;;;14.11;72.28;99784.34;1667125;86;21036;-41
2021/05/20 06:13:43;;;;;;;11.90;1.17;;;;;;;14.17;71.13;99784.92;1667182;86;20955;-41
2021/05/20 06:16:11;;;;;;;5.33;0.55;;;;;;;14.21;71.21;99790.82;1667059;86;21105;-42
2021/05/20 06:18:37;;;;;;;0.30;0.30;;;;;;;14.30;70.80;99791.73;1667188;84;20931;-42
2021/05/20 06:22:31;;;;;;;3.12;0.50;;;;;;;14.48;67.70;99786.16;1776340;79;22410;-41
2021/05/20 06:24:58;;;;;;;0.82;0.40;;;;;;;14.29;68.56;99780.94;1749032;82;20978;-41
2021/05/20 06:27:26;;;;;;;2.42;1.20;;;;;;;14.22;69.24;99786.00;1741312;82;21067;-41
2021/05/20 06:29:55;;;;;;;1.25;0.60;;;;;;;14.25;69.74;99782.44;1670155;85;21550;-41
2021/05/20 06:32:21;;;;;;;2.08;0.40;;;;;;;14.32;69.21;99778.63;1669815;86;21013;-42
2021/05/20 06:34:48;;;;;;;2.67;0.57;;;;;;;14.51;68.94;99783.41;1670071;86;20954;-42
2021/05/20 06:37:14;;;;;;;0.40;0.40;;;;;;;14.62;68.94;99777.70;1670282;86;21626;-42
2021/05/20 06:39:41;;;;;;;2.70;0.57;;;;;;;14.71;68.00;99782.13;1670270;86;21627;-42
2021/05/20 06:42:10;;;;;;;2.80;0.50;;;;;;;14.75;67.48;99782.36;1670228;84;21586;-41
2021/05/20 06:44:37;;;;;;;1.12;0.50;;;;;;;14.74;66.88;99790.66;1670252;86;21503;-41
2021/05/20 06:47:04;;;;;;;1.15;0.60;;;;;;;14.83;67.46;99802.41;1670231;86;21013;-41
2021/05/20 06:49:32;;;;;;;3.98;0.50;;;;;;;15.03;66.38;99801.91;1670117;84;21022;-41
2021/05/20 06:51:59;;;;;;;1.52;0.50;;;;;;;15.08;66.11;99803.86;1670180;86;21147;-41
2021/05/20 06:54:25;;;;;;;1.32;0.53;;;;;;;15.07;65.37;99803.00;1670178;86;20981;-42
2021/05/20 06:56:56;;;;;;;0.68;0.50;;;;;;;14.97;65.85;99808.72;1670109;86;20907;-41
2021/05/20 07:02:07;;;;;;;1.72;0.50;;;;;;;14.96;65.95;99821.36;1670294;86;21026;-41
2021/05/20 07:04:33;;;;;;;2.20;0.55;;;;;;;15.17;65.09;99822.14;1670197;86;21076;-41
2021/05/20 07:07:02;;;;;;;0.60;0.45;;;;;;;15.25;65.42;99821.30;1670164;86;21629;-41
2021/05/20 07:09:32;;;;;;;0.75;0.55;;;;;;;15.31;64.28;99827.52;1670111;86;21015;-42
2021/05/20 07:12:01;;;;;;;2.02;0.62;;;;;;;15.39;65.53;99836.27;1670079;86;21017;-42
2021/05/20 07:14:27;;;;;;;4.12;0.50;;;;;;;15.71;66.14;99836.92;1670132;86;21001;-42
2021/05/20 07:16:54;;;;;;;2.42;0.45;;;;;;;15.94;64.41;99850.14;1670333;86;21087;-42
2021/05/20 07:19:21;;;;;;;1.87;0.55;;;;;;;15.88;62.79;99853.04;1670244;86;20993;-42
2021/05/20 07:21:50;;;;;;;12.82;1.52;;;;;;;15.80;63.08;99851.67;1662107;85;20972;-42
2021/05/20 07:24:17;;;;;;;0.75;0.50;;;;;;;15.74;63.78;99853.73;1655838;86;21630;-42
2021/05/20 07:26:44;;;;;;;1.00;0.45;;;;;;;15.76;62.65;99847.49;1656176;85;20995;-42
2021/05/20 07:29:11;;;;;;;1.70;0.60;;;;;;;15.75;62.92;99859.33;1656197;85;21099;-42
2021/05/20 07:31:39;;;;;;;1.75;0.47;;;;;;;15.88;63.84;99853.04;1656234;86;21010;-42
2021/05/20 07:34:06;;;;;;;3.12;0.57;;;;;;;15.94;63.35;99851.45;1655745;86;21631;-42
2021/05/20 07:36:32;;;;;;;0.57;0.35;;;;;;;16.00;64.05;99851.13;1655700;86;20995;-42
2021/05/20 07:38:59;;;;;;;2.25;0.55;;;;;;;16.22;62.75;99848.73;1655757;86;20974;-42
2021/05/20 07:41:28;;;;;;;1.32;0.47;;;;;;;16.35;62.86;99852.41;1655586;86;21167;-42
2021/05/20 07:43:54;;;;;;;2.65;0.62;;;;;;;16.48;62.03;99855.67;1655724;86;21594;-43
2021/05/20 07:46:21;;;;;;;0.68;0.40;;;;;;;16.52;60.91;99855.44;1655710;86;20951;-42
2021/05/20 07:48:47;;;;;;;0.75;0.33;;;;;;;16.64;61.19;99851.77;1655635;86;20935;-42
2021/05/20 07:51:14;;;;;;;0.55;0.40;;;;;;;17.02;62.31;99848.05;1655792;86;20982;-42
2021/05/20 07:53:41;;;;;;;2.45;0.70;;;;;;;17.24;60.53;99855.08;1655745;86;21094;-42
2021/05/20 07:56:07;;;;;;;1.87;1.05;;;;;;;17.23;60.91;99860.41;1655610;86;21590;-42
2021/05/20 07:58:34;;;;;;;6.53;1.02;;;;;;;17.12;59.21;99854.47;1655798;86;21003;-43
2021/05/20 08:01:02;;;;;;;3.47;0.53;;;;;;;17.05;60.19;99871.40;1655643;86;21527;-42
2021/05/20 08:03:37;;;;;;;1.07;0.40;;;;;;;17.28;61.13;99867.53;1655814;86;21002;-42
2021/05/20 08:06:06;;;;;;;0.70;0.40;;;;;;;17.36;59.28;99870.55;1654846;86;21107;-42
2021/05/20 08:08:34;;;;;;;0.88;0.57;;;;;;;17.32;59.00;99866.91;1654652;86;21023;-42
2021/05/20 08:11:03;;;;;;;2.25;0.42;;;;;;;17.20;59.18;99864.51;1654889;86;21042;-42
2021/05/20 08:13:32;;;;;;;1.02;0.53;;;;;;;17.24;59.55;99860.79;1655772;85;21050;-41
2021/05/20 08:15:59;;;;;;;2.50;0.42;;;;;;;17.27;59.33;99872.83;1655795;86;20959;-41
2021/05/20 08:18:27;;;;;;;6.22;0.40;;;;;;;17.40;59.77;99883.45;1655599;86;22244;-41
2021/05/20 08:20:55;;;;;;;4.67;0.82;;;;;;;17.51;58.82;99892.38;1655453;86;21039;-41
2021/05/20 08:23:21;;;;;;;3.52;0.40;;;;;;;17.61;58.23;99891.88;1652825;86;20975;-41
2021/05/20 08:25:48;;;;;;;4.35;0.70;;;;;;;17.71;56.92;99897.44;1652854;86;20999;-41
2021/05/20 08:28:14;;;;;;;1.77;0.47;;;;;;;17.55;56.72;99898.75;1652848;85;21047;-41
2021/05/20 08:30:41;;;;;;;6.90;0.50;;;;;;;17.39;57.62;99899.63;1652872;85;21076;-41
2021/05/20 08:33:08;;;;;;;3.77;0.50;;;;;;;17.41;57.54;99904.30;1652758;86;21595;-41
2021/05/20 08:35:35;;;;;;;5.28;0.53;;;;;;;17.40;58.59;99907.85;1652796;86;21587;-41
2021/05/20 08:38:02;;;;;;;1.52;0.40;;;;;;;17.53;57.99;99914.06;1652967;86;21027;-41
2021/05/20 08:40:28;;;;;;;2.25;0.28;;;;;;;17.55;57.25;99902.67;1652814;86;21046;-41
2021/05/20 08:42:55;;;;;;;0.93;0.42;;;;;;;17.55;57.93;99902.67;1652826;86;21065;-42
2021/05/20 08:45:27;;;;;;;3.83;0.62;;;;;;;17.81;57.46;99913.84;1652717;86;21023;-42
2021/05/20 08:47:55;;;;;;;2.92;0.42;;;;;;;18.11;58.76;99907.41;1652807;86;21022;-42
2021/05/20 08:50:24;;;;;;;2.83;0.40;;;;;;;18.34;54.29;99912.58;1652913;85;21030;-42
2021/05/20 08:52:51;;;;;;;2.90;0.70;;;;;;;18.35;55.89;99890.23;1652907;86;21019;-42
2021/05/20 08:55:24;;;;;;;2.77;0.50;;;;;;;18.37;55.67;99893.59;1652750;86;20998;-42
2021/05/20 08:57:50;;;;;;;2.52;0.30;;;;;;;18.47;55.61;99893.03;1652790;86;20908;-42
2021/05/20 09:00:22;;;;;;;2.70;0.50;;;;;;;18.47;55.00;99890.41;1652819;86;21050;-42
2021/05/20 09:02:50;;;;;;;3.00;0.30;;;;;;;18.32;54.48;99898.27;1652618;86;21014;-42
2021/05/20 09:05:20;;;;;;;3.12;0.30;;;;;;;18.17;55.03;99903.11;1652858;86;20974;-42
2021/05/20 09:07:56;;;;;;;0.93;0.50;;;;;;;18.04;54.67;99920.00;1652845;86;21670;-42
2021/05/20 09:10:25;;;;;;;1.15;0.57;;;;;;;18.06;55.78;99920.30;1652745;86;21003;-41
2021/05/20 09:13:15;;;;;;;1.82;0.50;;;;;;;18.16;55.18;99919.75;1652840;86;20965;-41
2021/05/20 09:15:47;;;;;;;4.50;0.40;;;;;;;18.16;53.97;99914.52;1652708;86;21031;-41
2021/05/20 09:18:24;;;;;;;0.30;0.30;;;;;;;18.15;55.40;99925.92;1652822;86;21014;-42
2021/05/20 09:20:52;;;;;;;0.42;0.40;;;;;;;18.15;55.56;99925.44;1652278;86;21058;-41
2021/05/20 09:23:20;;;;;;;3.12;0.72;;;;;;;18.19;55.46;99928.28;1670285;85;20953;-41
2021/05/20 09:25:49;;;;;;;0.47;0.40;;;;;;;18.30;56.47;99926.80;1692124;83;21008;-41
2021/05/20 09:28:18;;;;;;;0.62;0.33;;;;;;;18.36;54.32;99939.07;1663908;84;21139;-42
2021/05/20 09:30:45;;;;;;;3.45;0.50;;;;;;;18.29;55.23;99936.41;1689546;83;21565;-42
2021/05/20 09:33:15;;;;;;;0.30;0.30;;;;;;;18.47;53.99;99938.89;1664020;84;21128;-42
2021/05/20 09:35:45;;;;;;;0.30;0.30;;;;;;;18.79;54.17;99940.87;1691916;84;21047;-42
2021/05/20 09:38:26;;;;;;;3.15;0.40;;;;;;;19.09;52.05;99933.88;1664137;86;21056;-42
2021/05/20 09:41:00;;;;;;;0.40;0.40;;;;;;;19.36;51.80;99927.82;1691956;83;21060;-42
2021/05/20 09:43:34;;;;;;;3.83;0.67;;;;;;;19.71;51.67;99927.80;1664411;84;21000;-42
2021/05/20 09:46:16;;;;;;;4.80;0.70;;;;;;;19.96;49.60;99925.73;1691809;83;21089;-41
2021/05/20 09:48:48;;;;;;;0.55;0.30;;;;;;;20.00;50.52;99931.15;1663954;84;21147;-42
2021/05/20 09:51:26;;;;;;;2.98;0.40;;;;;;;20.02;49.95;99937.14;1691986;83;21486;-42
2021/05/20 09:53:53;;;;;;;3.10;0.60;;;;;;;19.95;49.37;99935.88;1663948;86;21016;-42
2021/05/20 09:56:40;;;;;;;4.45;0.57;;;;;;;19.71;49.93;99935.19;1691895;83;21016;-42
2021/05/20 09:59:16;;;;;;;3.80;0.70;;;;;;;19.65;50.16;99943.47;1664071;84;21113;-42
2021/05/20 10:01:43;;;;;;;2.55;0.45;;;;;;;19.49;50.83;99947.08;1692100;83;21020;-42
2021/05/20 10:04:12;;;;;;;0.65;0.45;;;;;;;19.49;50.85;99944.94;1664116;84;21474;-42
2021/05/20 10:06:41;;;;;;;4.25;0.57;;;;;;;19.61;51.53;99942.82;1644733;84;20964;-42
2021/05/20 10:09:13;;;;;;;2.35;0.40;;;;;;;19.44;51.31;99952.23;1664019;86;20997;-42
2021/05/20 10:11:41;;;;;;;0.75;0.60;;;;;;;19.32;52.56;99950.78;1691552;83;21860;-42
2021/05/20 10:14:08;;;;;;;3.02;0.60;;;;;;;19.20;52.30;99956.81;1664019;86;20945;-42
2021/05/20 10:16:41;;;;;;;1.40;0.40;;;;;;;19.01;52.31;99957.09;1691876;84;20972;-42
2021/05/20 10:19:06;;;;;;;13.58;0.53;;;;;;;18.76;51.96;99961.18;1662743;85;20992;-41
2021/05/20 10:21:32;;;;;;;6.83;0.50;;;;;;;18.55;53.64;99963.33;1691804;84;21068;-42
2021/05/20 10:24:00;;;;;;;24.25;1.12;;;;;;;18.39;52.43;99956.37;1664040;86;21116;-41
2021/05/20 10:26:26;;;;;;;3.00;0.60;;;;;;;18.19;54.13;99957.55;1692023;83;21595;-41
2021/05/20 10:28:53;;;;;;;0.90;0.55;;;;;;;18.20;54.26;99950.92;1664089;84;21550;-41
2021/05/20 10:31:20;;;;;;;8.10;0.60;;;;;;;18.21;55.21;99965.70;1692018;84;21431;-42
2021/05/20 10:33:47;;;;;;;5.35;0.60;;;;;;;18.34;53.66;99960.59;1639620;86;21044;-41
2021/05/20 10:36:25;;;;;;;0.80;0.60;;;;;;;18.43;53.73;99963.59;1691832;84;21107;-41
2021/05/20 10:38:52;;;;;;;12.58;0.70;;;;;;;18.58;54.04;99964.00;1664034;84;21036;-41
2021/05/20 10:41:25;;;;;;;6.83;0.80;;;;;;;18.64;52.62;99970.17;1666178;84;21000;-41
2021/05/20 10:44:06;;;;;;;0.70;0.60;;;;;;;18.82;52.81;99971.32;1663980;86;21008;-41
2021/05/20 10:46:59;;;;;;;1.52;0.50;;;;;;;18.92;51.86;99962.39;1692114;84;20937;-41
2021/05/20 10:49:50;;;;;;;2.40;0.50;;;;;;;18.92;51.65;99964.56;1664041;86;21112;-41
2021/05/20 10:52:40;;;;;;;5.55;0.60;;;;;;;18.82;52.62;99970.01;1670549;84;20941;-41
2021/05/20 10:55:10;;;;;;;2.30;0.68;;;;;;;18.73;53.74;99966.16;1663949;84;21000;-41
2021/05/20 10:57:57;;;;;;;3.72;0.70;;;;;;;18.71;53.41;99969.80;1691776;84;21044;-41
2021/05/20 11:00:40;;;;;;;4.90;0.70;;;;;;;18.72;54.06;99980.20;1664147;86;21545;-42
2021/05/20 11:03:08;;;;;;;0.70;0.60;;;;;;;18.72;52.56;99980.20;1691951;83;21103;-41
2021/05/20 11:05:47;;;;;;;1.92;0.70;;;;;;;18.49;52.99;99980.25;1664012;84;20928;-41
2021/05/20 11:08:32;;;;;;;1.12;0.72;;;;;;;18.37;53.13;99979.19;1692017;84;21525;-42
2021/05/20 11:11:00;;;;;;;1.00;0.93;;;;;;;18.37;53.42;99976.58;1692196;83;21008;-49
2021/05/20 11:13:45;;;;;;;1.40;0.70;;;;;;;18.44;53.55;99985.78;1664002;84;20977;-42
2021/05/20 11:16:20;;;;;;;2.02;0.90;;;;;;;18.51;53.89;99989.72;1690816;83;21066;-42
2021/05/20 11:18:48;;;;;;;2.08;0.72;;;;;;;18.83;53.99;99990.50;1692047;83;21528;-42
2021/05/20 11:21:17;;;;;;;4.37;1.30;;;;;;;19.22;53.31;99996.42;1664113;86;21019;-42
2021/05/20 11:23:43;;;;;;;4.10;0.93;;;;;;;19.59;52.59;99990.64;1691931;83;21008;-42
2021/05/20 11:26:15;;;;;;;1.95;0.80;;;;;;;20.10;50.08;99998.37;1664158;86;21037;-43
2021/05/20 11:28:49;;;;;;;0.70;0.70;;;;;;;20.29;49.97;99993.22;1691460;83;21094;-43
2021/05/20 11:31:17;;;;;;;6.42;0.82;;;;;;;20.58;49.34;99989.92;1692244;84;21009;-42
2021/05/20 11:36:14;;;;;;;6.00;0.60;;;;;;;20.51;46.80;99997.86;1691964;84;21557;-43
2021/05/20 11:38:58;;;;;;;3.83;0.72;;;;;;;20.23;47.67;100006.28;1664033;86;20960;-43
2021/05/20 11:41:26;;;;;;;4.00;1.35;;;;;;;20.22;48.20;99993.63;1690492;84;21051;-43
2021/05/20 11:44:05;;;;;;;15.58;1.50;;;;;;;20.44;48.04;99997.42;1664073;86;21020;-42
2021/05/20 11:46:33;;;;;;;8.55;1.10;;;;;;;20.87;48.88;99995.03;1691360;84;20909;-43
2021/05/20 11:49:18;;;;;;;3.25;0.80;;;;;;;21.41;46.74;99991.72;1664100;84;20917;-43
2021/05/20 11:51:46;;;;;;;9.63;0.88;;;;;;;21.77;45.36;99983.45;1690279;84;21597;-43